Time;durP1;ratioP1;P1;durP2;ratioP2;P2;SDS_P1;SDS_P2;PMS_P1;PMS_P2;Temp;Humidity;BMP_temperature;BMP_pressure;BME280_temperature;BME280_humidity;BME280_pressure;Samples;Min_cycle;Max_cycle;Signal;HPM_P1;HPM_P2
2023/11/18 00:00:03;420557.00;1.40;725.15;85167.00;0.28;147.96;;;;;10.40;1.00;;;;;;2267770;61;1110;-86
2023/11/18 00:02:33;350364.00;1.17;604.49;0.00;0.00;0.62;;;;;10.60;1.00;;;;;;2302817;41;3559;-86
2023/11/18 00:05:00;479710.00;1.60;826.90;26910.00;0.09;47.23;;;;;10.50;1.00;;;;;;2272601;40;3690;-84
2023/11/18 00:07:27;1062390.00;3.54;1843.29;6946.00;0.02;12.66;;;;;10.30;1.00;;;;;;2273516;61;1691;-86
2023/11/18 00:09:54;605969.00;2.02;1044.53;9121.00;0.03;16.43;;;;;10.20;1.00;;;;;;2271617;61;998;-87
2023/11/18 00:12:21;920330.00;3.07;1591.85;460.00;0.00;1.42;;;;;10.00;1.00;;;;;;2271763;61;1914;-86
2023/11/18 00:14:49;756595.00;2.52;1305.53;9603.00;0.03;17.26;;;;;9.90;1.00;;;;;;2269387;61;1336;-86
2023/11/18 00:17:18;659535.00;2.20;1137.14;0.00;0.00;0.62;;;;;9.90;1.00;;;;;;2267585;61;969;-87
2023/11/18 00:19:45;628922.00;2.10;1084.19;0.00;0.00;0.62;;;;;9.60;1.00;;;;;;2267585;61;999;-86
2023/11/18 00:22:12;586714.00;1.96;1011.28;0.00;0.00;0.62;;;;;9.70;1.00;;;;;;2267773;61;1090;-86
2023/11/18 00:27:07;1143905.00;3.81;1989.12;95204.00;0.32;165.29;;;;;10.10;1.00;;;;;;2273125;61;1432;-87
2023/11/18 00:29:37;976553.00;3.26;1690.99;102644.00;0.34;178.14;;;;;10.30;1.00;;;;;;2271607;61;1119;-87
2023/11/18 00:32:06;1332973.00;4.44;2332.58;131770.00;0.44;228.38;;;;;10.40;1.00;;;;;;2271611;61;2000;-86
2023/11/18 00:34:33;995630.00;3.32;1724.73;107264.00;0.36;186.11;;;;;10.40;1.00;;;;;;2269633;61;1526;-87
2023/11/18 00:37:00;931111.00;3.10;1610.83;128484.00;0.43;222.71;;;;;10.40;1.00;;;;;;2267753;61;943;-87
2023/11/18 00:39:27;737685.00;2.46;1272.65;114920.00;0.38;199.32;;;;;10.30;1.00;;;;;;2267672;61;1009;-86
2023/11/18 00:41:55;118022432.00;393.41;66592976.00;103415.00;0.34;179.47;;;;;10.30;1.00;;;;;;2267624;61;927;-85
2023/11/18 00:44:22;951799.00;3.17;1647.28;84619.00;0.28;147.02;;;;;10.50;1.00;;;;;;2267618;61;1371;-86
2023/11/18 00:49:18;1192378.00;3.97;2076.45;114703.00;0.38;198.94;;;;;10.20;1.00;;;;;;2273769;61;1403;-86
2023/11/18 00:51:45;954846.00;3.18;1652.66;114493.00;0.38;198.58;;;;;10.30;1.00;;;;;;2271580;61;1997;-86
2023/11/18 00:54:12;1023069.00;3.41;1773.37;102122.00;0.34;177.23;;;;;10.30;1.00;;;;;;2270364;61;1412;-86
2023/11/18 00:56:39;852992.00;2.84;1473.70;108927.00;0.36;188.98;;;;;10.30;1.00;;;;;;2267698;61;1026;-85
2023/11/18 00:59:07;925326.00;3.08;1600.65;112969.00;0.38;195.95;;;;;10.40;1.00;;;;;;2267679;61;1103;-87
2023/11/18 01:01:34;1000461.00;3.33;1733.29;87217.00;0.29;151.50;;;;;10.50;1.00;;;;;;2267564;61;1066;-87
2023/11/18 01:04:02;803821.00;2.68;1387.79;123955.00;0.41;214.90;;;;;10.30;1.00;;;;;;2267521;61;1552;-87
2023/11/18 01:06:32;683173.00;2.28;1178.07;98035.00;0.33;170.18;;;;;10.40;1.00;;;;;;2267470;61;929;-86
2023/11/18 01:08:59;712898.00;2.38;1229.61;101714.00;0.34;176.53;;;;;10.40;1.00;;;;;;2284045;55;3734;-87
2023/11/18 01:11:26;735696.00;2.45;1269.20;97490.00;0.32;169.24;;;;;10.30;1.00;;;;;;2271607;61;1919;-85
2023/11/18 01:13:54;117275008.00;390.92;65334668.00;66367.00;0.22;115.48;;;;;10.40;1.00;;;;;;2270948;61;1397;-87
2023/11/18 01:16:21;339639.00;1.13;586.05;89845.00;0.30;156.04;;;;;10.50;1.00;;;;;;2267328;61;997;-86
2023/11/18 01:18:48;354587.00;1.18;611.75;86389.00;0.29;150.07;;;;;10.40;1.00;;;;;;2267639;61;894;-86
2023/11/18 01:21:17;268990.00;0.90;464.61;88949.00;0.30;154.49;;;;;10.40;1.00;;;;;;2267530;61;1107;-86
2023/11/18 01:23:45;261840.00;0.87;452.31;83347.00;0.28;144.82;;;;;10.50;1.00;;;;;;2267596;61;1372;-87
2023/11/18 01:26:13;340973.00;1.14;588.35;91428.00;0.30;158.77;;;;;10.50;1.00;;;;;;2267426;61;1115;-85
2023/11/18 01:28:42;489628.00;1.63;843.97;93326.00;0.31;162.05;;;;;10.40;1.00;;;;;;2294457;40;3596;-87
2023/11/18 01:31:10;406700.00;1.36;701.32;89960.00;0.30;156.24;;;;;10.20;1.00;;;;;;2271581;61;2012;-87
2023/11/18 01:33:39;517113.00;1.72;891.29;119522.00;0.40;207.26;;;;;10.10;1.00;;;;;;2271341;61;1365;-86
2023/11/18 01:36:09;423442.00;1.41;730.11;86483.00;0.29;150.23;;;;;10.20;1.00;;;;;;2267474;61;1017;-87
2023/11/18 01:38:37;798380.00;2.66;1378.30;120954.00;0.40;209.73;;;;;10.20;1.00;;;;;;2267538;61;2093;-86
2023/11/18 01:41:06;738080.00;2.46;1273.34;92737.00;0.31;161.03;;;;;10.00;1.00;;;;;;2267436;61;1050;-86
2023/11/18 01:43:33;867585.00;2.89;1499.26;122837.00;0.41;212.98;;;;;10.20;1.00;;;;;;2267497;61;1387;-87
2023/11/18 01:46:01;874820.00;2.92;1511.94;153364.00;0.51;265.60;;;;;10.40;1.00;;;;;;2267483;61;1781;-85
2023/11/18 01:48:29;1003909.00;3.35;1739.40;91868.00;0.31;159.53;;;;;10.50;1.00;;;;;;2267542;61;1107;-86
2023/11/18 01:50:58;1122290.00;3.74;1950.33;117916.00;0.39;204.49;;;;;10.50;1.00;;;;;;2267431;61;1000;-85
2023/11/18 01:55:55;891370.00;2.97;1540.97;89908.00;0.30;156.15;;;;;10.30;1.00;;;;;;2269237;61;1395;-86
2023/11/18 01:58:25;1011019.00;3.37;1752.00;65294.00;0.22;113.63;;;;;10.50;1.00;;;;;;2267367;61;1501;-85
2023/11/18 02:00:55;849873.00;2.83;1468.25;122300.00;0.41;212.05;;;;;10.50;1.00;;;;;;2267321;61;1711;-87
2023/11/18 02:03:22;918817.00;3.06;1589.19;0.00;0.00;0.62;;;;;10.20;1.00;;;;;;2267544;61;1083;-87
2023/11/18 02:05:49;626732.00;2.09;1080.40;88217.00;0.29;153.23;;;;;10.00;1.00;;;;;;2267497;61;1586;-85
2023/11/18 02:08:16;793844.00;2.65;1370.39;92448.00;0.31;160.53;;;;;9.80;1.00;;;;;;2267525;61;1063;-86
2023/11/18 02:10:50;861940.00;2.87;1489.37;87443.00;0.29;151.89;;;;;9.90;1.00;;;;;;2267441;61;1024;-86
2023/11/18 02:13:25;875836.00;2.92;1513.72;50046.00;0.17;87.27;;;;;9.90;1.00;;;;;;2267282;61;2010;-87
2023/11/18 02:15:56;928227.00;3.09;1605.75;39669.00;0.13;69.32;;;;;9.90;1.00;;;;;;2267287;61;1452;-87
2023/11/18 02:18:26;757306.00;2.52;1306.76;79831.00;0.27;138.75;;;;;10.10;1.00;;;;;;2267792;61;1712;-88
2023/11/18 02:20:57;795785.00;2.65;1373.77;16826.00;0.06;29.77;;;;;10.30;1.00;;;;;;2268126;61;1561;-86
2023/11/18 02:23:26;1107580.00;3.69;1923.98;66898.00;0.22;116.40;;;;;10.20;1.00;;;;;;2268055;61;1440;-87
2023/11/18 02:25:55;684764.00;2.28;1180.83;50254.00;0.17;87.63;;;;;10.20;1.00;;;;;;2268001;61;1697;-87
2023/11/18 02:28:22;673315.00;2.24;1160.99;22370.00;0.07;39.37;;;;;10.20;1.00;;;;;;2268129;61;1083;-87
2023/11/18 02:30:55;772563.00;2.58;1333.31;132349.00;0.44;229.38;;;;;10.30;1.00;;;;;;2267973;61;1597;-86
2023/11/18 02:33:33;433345.00;1.44;747.14;0.00;0.00;0.62;;;;;10.40;1.00;;;;;;2268112;61;1932;-87
2023/11/18 02:36:08;507190.00;1.69;874.20;0.00;0.00;0.62;;;;;10.50;1.00;;;;;;2268084;61;994;-86
2023/11/18 02:38:45;630350.00;2.10;1086.65;7842.00;0.03;14.21;;;;;10.40;1.00;;;;;;2268067;61;1234;-86
2023/11/18 02:41:16;553254.00;1.84;953.57;16724.00;0.06;29.60;;;;;10.50;1.00;;;;;;2268001;61;958;-86
2023/11/18 02:43:44;893100.00;2.98;1544.00;29742.00;0.10;52.14;;;;;10.50;1.00;;;;;;2268137;61;1386;-86
2023/11/18 02:46:13;835254.00;2.78;1442.68;0.00;0.00;0.62;;;;;10.50;1.00;;;;;;2268022;61;1480;-87
2023/11/18 02:48:41;938831.00;3.13;1624.42;156217.00;0.52;270.52;;;;;10.40;1.00;;;;;;2268068;61;1127;-88
2023/11/18 02:51:08;675885.00;2.25;1165.44;105163.00;0.35;182.48;;;;;10.50;1.00;;;;;;2268059;61;1067;-89
2023/11/18 02:53:35;782126.00;2.61;1349.97;87084.00;0.29;151.27;;;;;10.40;1.00;;;;;;2267748;61;2014;-86
2023/11/18 02:56:04;834252.00;2.78;1440.93;95975.00;0.32;166.62;;;;;10.40;1.00;;;;;;2268058;61;920;-88
2023/11/18 02:58:33;950230.00;3.17;1644.52;111542.00;0.37;193.49;;;;;10.40;1.00;;;;;;2267941;61;977;-85
2023/11/18 03:01:00;879590.00;2.93;1520.30;31382.00;0.10;54.98;;;;;10.20;1.00;;;;;;2290489;55;3719;-86
2023/11/18 03:03:28;846079.00;2.82;1461.61;76816.00;0.26;133.54;;;;;10.00;1.00;;;;;;2271993;61;1060;-86
2023/11/18 03:05:55;741060.00;2.47;1278.52;81531.00;0.27;141.68;;;;;9.90;1.00;;;;;;2267985;61;1405;-86
2023/11/18 03:08:21;760594.00;2.54;1312.48;95761.00;0.32;166.25;;;;;9.90;1.00;;;;;;2267982;61;1019;-85
2023/11/18 03:10:52;871204.00;2.90;1505.60;95938.00;0.32;166.56;;;;;9.90;1.00;;;;;;2267948;61;928;-86
2023/11/18 03:13:19;785991.00;2.62;1356.70;27836.00;0.09;48.84;;;;;9.80;1.00;;;;;;2267901;61;2006;-85
2023/11/18 03:15:48;570665.00;1.90;983.59;9348.00;0.03;16.82;;;;;9.60;1.00;;;;;;2267767;61;1589;-85
2023/11/18 03:18:15;547676.00;1.83;943.95;0.00;0.00;0.62;;;;;9.60;1.00;;;;;;2267977;61;1660;-87
2023/11/18 03:20:43;526202.00;1.75;906.95;83321.00;0.28;144.77;;;;;9.50;1.00;;;;;;2267885;61;1027;-86
2023/11/18 03:23:10;894309.00;2.98;1546.13;92555.00;0.31;160.72;;;;;9.50;1.00;;;;;;2267955;61;1016;-87
2023/11/18 03:25:37;610002.00;2.03;1051.49;114909.00;0.38;199.30;;;;;9.40;1.00;;;;;;2267872;61;1370;-87
2023/11/18 03:28:06;651010.00;2.17;1122.38;85721.00;0.29;148.92;;;;;9.40;1.00;;;;;;2267878;61;1063;-88
2023/11/18 03:30:33;771274.00;2.57;1331.07;68765.00;0.23;119.63;;;;;9.40;1.00;;;;;;2267789;61;1783;-86
2023/11/18 03:33:01;1206933.00;4.02;2102.76;176473.00;0.59;305.42;;;;;9.30;1.00;;;;;;2267882;61;2006;-87
2023/11/18 03:35:28;1105402.00;3.68;1920.09;40055.00;0.13;69.98;;;;;9.20;1.00;;;;;;2267758;61;1376;-87
2023/11/18 03:37:55;928506.00;3.10;1606.24;70168.00;0.23;122.05;;;;;9.30;1.00;;;;;;2267903;61;958;-87
2023/11/18 03:40:22;827042.00;2.76;1428.33;101907.00;0.34;176.86;;;;;9.30;1.00;;;;;;2267944;61;1082;-87
2023/11/18 03:42:48;901045.00;3.00;1557.96;88100.00;0.29;153.03;;;;;9.30;1.00;;;;;;2267921;61;982;-86
2023/11/18 03:45:17;707106.00;2.36;1219.56;86333.00;0.29;149.98;;;;;9.20;1.00;;;;;;2267766;61;1497;-87
2023/11/18 03:47:45;712826.00;2.38;1229.49;87611.00;0.29;152.18;;;;;9.20;1.00;;;;;;2267875;61;1109;-85
2023/11/18 03:50:14;602921.00;2.01;1039.26;91332.00;0.30;158.61;;;;;9.20;1.00;;;;;;2267773;61;1098;-86
2023/11/18 03:52:40;446031.00;1.49;768.96;0.00;0.00;0.62;;;;;9.20;1.00;;;;;;2267771;61;2005;-86
2023/11/18 03:55:08;774349.00;2.58;1336.42;74658.00;0.25;129.81;;;;;9.20;1.00;;;;;;2267755;61;1529;-86
2023/11/18 03:57:36;475954.00;1.59;820.43;15103.00;0.05;26.79;;;;;9.30;1.00;;;;;;2267799;61;1011;-87
2023/11/18 04:00:03;617561.00;2.06;1064.55;61108.00;0.20;106.39;;;;;9.30;1.00;;;;;;2267751;61;956;-87
2023/11/18 04:02:30;628377.00;2.09;1083.24;128706.00;0.43;223.10;;;;;9.10;1.00;;;;;;2267956;61;2265;-88
2023/11/18 04:04:57;651344.00;2.17;1122.96;89695.00;0.30;155.78;;;;;9.00;1.00;;;;;;2268020;61;1393;-84
2023/11/18 04:07:24;607658.00;2.03;1047.44;84652.00;0.28;147.07;;;;;9.00;1.00;;;;;;2268018;61;1432;-87
2023/11/18 04:09:51;622827.00;2.08;1073.65;85401.00;0.28;148.37;;;;;9.00;1.00;;;;;;2267994;61;936;-86
2023/11/18 04:12:18;715164.00;2.38;1233.54;100924.00;0.34;175.17;;;;;9.10;1.00;;;;;;2267987;61;2008;-86
2023/11/18 04:14:45;706441.00;2.35;1218.41;118854.00;0.40;206.11;;;;;9.00;1.00;;;;;;2267959;61;1376;-86
2023/11/18 04:17:12;601033.00;2.00;1036.00;82885.00;0.28;144.02;;;;;9.20;1.00;;;;;;2267974;61;1617;-86
2023/11/18 04:19:39;683789.00;2.28;1179.14;90179.00;0.30;156.62;;;;;9.10;1.00;;;;;;2268014;61;1115;-86
2023/11/18 04:22:06;117398176.00;391.33;65540920.00;87896.00;0.29;152.67;;;;;9.20;1.00;;;;;;2274571;55;3767;-87
2023/11/18 04:24:35;439330.00;1.46;757.43;88291.00;0.29;153.36;;;;;9.20;1.00;;;;;;2270185;61;1494;-87
2023/11/18 04:27:02;385851.00;1.29;665.48;87326.00;0.29;151.69;;;;;9.30;1.00;;;;;;2268044;61;1007;-87
2023/11/18 04:29:29;567946.00;1.89;978.90;74487.00;0.25;129.51;;;;;9.30;1.00;;;;;;2267996;61;1102;-86
2023/11/18 04:31:55;328076.00;1.09;566.18;87404.00;0.29;151.82;;;;;9.50;1.00;;;;;;2267938;61;1131;-86
2023/11/18 04:34:23;449723.00;1.50;775.31;89028.00;0.30;154.63;;;;;9.50;1.00;;;;;;2267914;61;1932;-87
2023/11/18 04:36:50;431062.00;1.44;743.21;87992.00;0.29;152.84;;;;;9.40;1.00;;;;;;2267989;61;1071;-88
2023/11/18 04:39:17;464535.00;1.55;800.79;57807.00;0.19;100.69;;;;;9.60;1.00;;;;;;2267969;61;1134;-87
2023/11/18 04:41:46;361467.00;1.20;623.57;95170.00;0.32;165.23;;;;;9.60;1.00;;;;;;2267926;61;1634;-85
2023/11/18 04:44:13;420005.00;1.40;724.20;88811.00;0.30;154.25;;;;;9.60;1.00;;;;;;2267898;61;2357;-84
2023/11/18 04:46:40;278679.00;0.93;481.27;85601.00;0.29;148.71;;;;;9.70;1.00;;;;;;2267946;61;1719;-86
2023/11/18 04:49:07;396309.00;1.32;683.46;89985.00;0.30;156.28;;;;;9.70;1.00;;;;;;2267922;61;1677;-89
2023/11/18 04:51:34;364220.00;1.21;628.30;91328.00;0.30;158.60;;;;;9.60;1.00;;;;;;2268046;61;966;-87
2023/11/18 04:54:03;410525.00;1.37;707.90;88220.00;0.29;153.23;;;;;9.40;1.00;;;;;;2267850;61;1928;-86
2023/11/18 04:56:30;318766.00;1.06;550.18;95017.00;0.32;164.97;;;;;9.20;1.00;;;;;;2267949;61;1127;-88
2023/11/18 04:58:58;287367.00;0.96;496.20;93027.00;0.31;161.53;;;;;8.90;1.00;;;;;;2267947;61;1126;-87
2023/11/18 05:01:25;390804.00;1.30;674.00;99246.00;0.33;172.27;;;;;8.80;1.00;;;;;;2267961;61;1035;-87
2023/11/18 05:03:52;312294.00;1.04;539.05;82405.00;0.27;143.19;;;;;8.90;1.00;;;;;;2267913;61;1355;-86
2023/11/18 05:06:20;446809.00;1.49;770.29;95711.00;0.32;166.17;;;;;9.00;1.00;;;;;;2267889;61;1528;-87
2023/11/18 05:08:47;371477.00;1.24;640.78;87121.00;0.29;151.34;;;;;9.10;1.00;;;;;;2267934;61;1143;-88
2023/11/18 05:11:14;406241.00;1.35;700.53;86895.00;0.29;150.95;;;;;9.10;1.00;;;;;;2267936;61;1097;-87
2023/11/18 05:13:41;416791.00;1.39;718.67;90503.00;0.30;157.18;;;;;9.40;1.00;;;;;;2267734;61;2007;-86
2023/11/18 05:16:11;274210.00;0.91;473.58;88144.00;0.29;153.10;;;;;9.20;1.00;;;;;;2267858;61;1613;-85
2023/11/18 05:18:38;465808.00;1.55;802.98;88801.00;0.30;154.24;;;;;9.30;1.00;;;;;;2267847;61;957;-86
2023/11/18 05:21:06;300045.00;1.00;518.00;84830.00;0.28;147.38;;;;;9.20;1.00;;;;;;2267777;61;1613;-87
2023/11/18 05:23:35;268581.00;0.90;463.90;87818.00;0.29;152.54;;;;;9.00;1.00;;;;;;2267742;61;2068;-86
2023/11/18 05:26:04;322319.00;1.07;556.28;78922.00;0.26;137.18;;;;;9.10;1.00;;;;;;2267872;61;1074;-85
2023/11/18 05:28:31;403124.00;1.34;695.18;93183.00;0.31;161.80;;;;;9.10;1.00;;;;;;2267834;61;1039;-86
2023/11/18 05:31:01;421349.00;1.40;726.51;94842.00;0.32;164.67;;;;;9.10;1.00;;;;;;2267730;61;1715;-87
2023/11/18 05:33:30;601237.00;2.00;1036.36;110986.00;0.37;192.53;;;;;9.10;1.00;;;;;;2267704;61;2014;-86
2023/11/18 05:35:57;624541.00;2.08;1076.61;84477.00;0.28;146.77;;;;;9.20;1.00;;;;;;2267781;61;1257;-87
2023/11/18 05:38:31;429303.00;1.43;740.19;83653.00;0.28;145.35;;;;;9.30;1.00;;;;;;2267763;61;1164;-85
2023/11/18 05:41:01;511321.00;1.70;881.32;87257.00;0.29;151.57;;;;;9.30;1.00;;;;;;2267712;61;1102;-86
2023/11/18 05:43:36;569616.00;1.90;981.78;94683.00;0.32;164.39;;;;;9.50;1.00;;;;;;2291856;40;3711;-85
2023/11/18 05:46:20;125887272.00;419.62;80827344.00;104000.00;0.35;180.48;;;;;9.70;1.00;;;;;;2267257;61;1168;-86
2023/11/18 05:48:49;582775.00;1.94;1004.49;20426.00;0.07;36.01;;;;;9.50;1.00;;;;;;2267899;61;1108;-88
2023/11/18 05:51:21;379867.00;1.27;655.20;0.00;0.00;0.62;;;;;9.70;1.00;;;;;;2267831;61;922;-86
2023/11/18 05:53:48;668463.00;2.23;1152.59;41895.00;0.14;73.17;;;;;9.60;1.00;;;;;;2268180;61;2007;-87
2023/11/18 05:56:16;898281.00;2.99;1553.10;8139.00;0.03;14.72;;;;;9.60;1.00;;;;;;2268586;61;972;-87
2023/11/18 05:58:44;618484.00;2.06;1066.15;0.00;0.00;0.62;;;;;9.10;1.00;;;;;;2268579;61;1120;-85
2023/11/18 06:01:11;483968.00;1.61;834.23;74.00;0.00;0.75;;;;;9.00;1.00;;;;;;2268515;61;1110;-86
2023/11/18 06:03:41;513871.00;1.71;885.71;47442.00;0.16;82.76;;;;;9.20;1.00;;;;;;2268355;61;1315;-86
2023/11/18 06:06:10;756139.00;2.52;1304.73;39376.00;0.13;68.81;;;;;9.20;1.00;;;;;;2268425;61;1600;-88
2023/11/18 06:08:40;786849.00;2.62;1358.20;31651.00;0.11;55.44;;;;;9.20;1.00;;;;;;2272688;55;3728;-87
2023/11/18 06:11:12;596486.00;1.99;1028.15;4654.00;0.02;8.69;;;;;9.30;1.00;;;;;;2279605;56;3730;-85
2023/11/18 06:13:42;193709.00;0.65;335.09;0.00;0.00;0.62;;;;;9.40;1.00;;;;;;2272173;61;2005;-85
2023/11/18 06:16:14;116820.00;0.39;202.60;0.00;0.00;0.62;;;;;9.50;1.00;;;;;;2268346;61;1015;-86
2023/11/18 06:18:44;193098.00;0.64;334.04;0.00;0.00;0.62;;;;;9.50;1.00;;;;;;2268401;61;1129;-86
2023/11/18 06:21:14;172090.00;0.57;297.87;16722.00;0.06;29.59;;;;;9.40;1.00;;;;;;2274236;40;3569;-86
2023/11/18 06:23:42;23702.00;0.08;41.68;0.00;0.00;0.62;;;;;9.60;1.00;;;;;;2268175;61;2009;-85
2023/11/18 06:26:10;202364.00;0.67;349.99;0.00;0.00;0.62;;;;;9.50;1.00;;;;;;2264328;61;1050;-86
2023/11/18 06:28:39;62813.00;0.21;109.34;0.00;0.00;0.62;;;;;9.70;1.00;;;;;;2264458;61;976;-85
2023/11/18 06:31:08;232390.00;0.77;401.66;49652.00;0.17;86.58;;;;;9.70;1.00;;;;;;2264291;61;1471;-87
2023/11/18 06:33:39;53337.00;0.18;92.96;0.00;0.00;0.62;;;;;9.60;1.00;;;;;;2264302;61;1916;-86
2023/11/18 06:36:08;34883.00;0.12;61.03;0.00;0.00;0.62;;;;;9.50;1.00;;;;;;2264378;61;1622;-87
2023/11/18 06:38:36;51375.00;0.17;89.56;0.00;0.00;0.62;;;;;9.50;1.00;;;;;;2309276;40;3612;-87
2023/11/18 06:41:05;4065.00;0.01;7.67;0.00;0.00;0.62;;;;;9.60;1.00;;;;;;2287901;40;3579;-86
2023/11/18 06:43:49;150719.00;0.50;261.05;28891.00;0.10;50.66;;;;;9.70;1.00;;;;;;2272363;61;1801;-86
2023/11/18 06:46:16;24376.00;0.08;42.85;0.00;0.00;0.62;;;;;9.50;1.00;;;;;;2284206;40;3553;-87
2023/11/18 06:48:43;203615.00;0.68;352.15;0.00;0.00;0.62;;;;;9.70;1.00;;;;;;2272462;61;1056;-86
2023/11/18 06:51:09;203556.00;0.68;352.04;0.00;0.00;0.62;;;;;9.70;1.00;;;;;;2272432;61;986;-86
2023/11/18 06:53:37;369157.00;1.23;636.79;0.00;0.00;0.62;;;;;9.70;1.00;;;;;;2272139;61;2004;-87
2023/11/18 06:56:05;376339.00;1.25;649.13;0.00;0.00;0.62;;;;;9.70;1.00;;;;;;2268289;61;938;-87
2023/11/18 06:58:32;338516.00;1.13;584.12;13390.00;0.04;23.82;;;;;9.80;1.00;;;;;;2268358;61;1106;-88
2023/11/18 07:00:59;259187.00;0.86;447.75;0.00;0.00;0.62;;;;;9.60;1.00;;;;;;2268277;61;1676;-87
2023/11/18 07:03:25;358283.00;1.19;618.10;0.00;0.00;0.62;;;;;9.50;1.00;;;;;;2268193;61;1079;-87
2023/11/18 07:05:52;486011.00;1.62;837.74;0.00;0.00;0.62;;;;;9.30;1.00;;;;;;2268274;61;2199;-87
2023/11/18 07:08:19;373076.00;1.24;643.52;0.00;0.00;0.62;;;;;9.40;1.00;;;;;;2268278;61;919;-86
2023/11/18 07:10:48;416283.00;1.39;717.80;0.00;0.00;0.62;;;;;9.40;1.00;;;;;;2268268;61;1125;-88
2023/11/18 07:13:16;416073.00;1.39;717.44;0.00;0.00;0.62;;;;;9.30;1.00;;;;;;2268222;61;1928;-86
2023/11/18 07:15:43;424581.00;1.42;732.07;0.00;0.00;0.62;;;;;9.20;1.00;;;;;;2268270;61;1755;-88
2023/11/18 07:18:11;615198.00;2.05;1060.47;4588.00;0.02;8.57;;;;;9.30;1.00;;;;;;2268306;61;1071;-87
2023/11/18 07:20:38;611108.00;2.04;1053.40;21381.00;0.07;37.66;;;;;9.40;1.00;;;;;;2268281;61;962;-87
2023/11/18 07:23:05;321038.00;1.07;554.08;0.00;0.00;0.62;;;;;9.50;1.00;;;;;;2268316;61;1107;-87
2023/11/18 07:25:34;362650.00;1.21;625.60;0.00;0.00;0.62;;;;;9.60;1.00;;;;;;2268233;61;1382;-87
2023/11/18 07:28:02;402639.00;1.34;694.34;0.00;0.00;0.62;;;;;9.60;1.00;;;;;;2268308;61;1193;-88
2023/11/18 07:30:30;311701.00;1.04;538.03;0.00;0.00;0.62;;;;;9.60;1.00;;;;;;2268253;61;1099;-87
2023/11/18 07:32:59;432618.00;1.44;745.89;13686.00;0.05;24.33;;;;;9.90;1.00;;;;;;2268190;61;2009;-88
2023/11/18 07:35:26;397207.00;1.32;685.00;11728.00;0.04;20.94;;;;;10.10;1.00;;;;;;2268275;61;1316;-85
2023/11/18 07:37:53;347865.00;1.16;600.19;0.00;0.00;0.62;;;;;10.10;1.00;;;;;;2268220;61;1121;-84
2023/11/18 07:40:27;325866.00;1.09;562.38;0.00;0.00;0.62;;;;;10.10;1.00;;;;;;2268222;61;1102;-86
2023/11/18 07:42:55;449436.00;1.50;774.81;51248.00;0.17;89.34;;;;;10.20;1.00;;;;;;2268154;61;1246;-84
2023/11/18 07:45:24;301094.00;1.00;519.80;16403.00;0.05;29.04;;;;;10.30;1.00;;;;;;2268058;61;1325;-85
2023/11/18 07:47:51;254380.00;0.85;439.48;0.00;0.00;0.62;;;;;10.30;1.00;;;;;;2268202;61;945;-86
2023/11/18 07:50:19;206125.00;0.69;356.47;0.00;0.00;0.62;;;;;10.30;1.00;;;;;;2268224;61;1001;-85
2023/11/18 07:52:46;368884.00;1.23;636.32;0.00;0.00;0.62;;;;;10.40;1.00;;;;;;2268160;61;1098;-86
2023/11/18 07:55:13;125113.00;0.42;216.90;0.00;0.00;0.62;;;;;10.50;1.00;;;;;;2268180;61;2018;-88
2023/11/18 07:57:40;299871.00;1.00;517.70;0.00;0.00;0.62;;;;;10.60;1.00;;;;;;2268173;61;918;-87
2023/11/18 08:00:09;339329.00;1.13;585.52;0.00;0.00;0.62;;;;;10.70;1.00;;;;;;2268169;61;1075;-85
2023/11/18 08:02:38;320320.00;1.07;552.85;60011.00;0.20;104.50;;;;;10.60;1.00;;;;;;2268142;61;1052;-83
2023/11/18 08:05:06;145794.00;0.49;252.56;0.00;0.00;0.62;;;;;10.80;1.00;;;;;;2268128;61;1239;-86
2023/11/18 08:07:34;437634.00;1.46;754.51;11693.00;0.04;20.88;;;;;10.90;1.00;;;;;;2268189;61;995;-86
2023/11/18 08:10:03;548440.00;1.83;945.27;0.00;0.00;0.62;;;;;10.90;1.00;;;;;;2268203;61;1110;-86
2023/11/18 08:12:30;621690.00;2.07;1071.69;26658.00;0.09;46.80;;;;;10.80;1.00;;;;;;2268097;61;1560;-87
2023/11/18 08:14:58;603727.00;2.01;1040.66;0.00;0.00;0.62;;;;;10.90;1.00;;;;;;2267989;61;2002;-86
2023/11/18 08:17:25;564172.00;1.88;972.40;0.00;0.00;0.62;;;;;11.00;1.00;;;;;;2268097;61;1755;-86
2023/11/18 08:19:54;856604.00;2.86;1480.03;16953.00;0.06;29.99;;;;;11.00;1.00;;;;;;2268044;61;1467;-86
2023/11/18 08:22:22;610859.00;2.04;1052.97;47003.00;0.16;82.00;;;;;11.00;1.00;;;;;;2268000;61;1410;-87
2023/11/18 08:24:49;863618.00;2.88;1492.31;8139.00;0.03;14.72;;;;;11.00;1.00;;;;;;2267991;61;1245;-86
2023/11/18 08:27:16;736948.00;2.46;1271.37;0.00;0.00;0.62;;;;;11.10;1.00;;;;;;2268152;61;1017;-86
2023/11/18 08:29:43;745838.00;2.49;1286.82;121936.00;0.41;211.42;;;;;11.00;1.00;;;;;;2267952;61;965;-86
2023/11/18 08:32:11;705371.00;2.35;1216.55;84445.00;0.28;146.71;;;;;10.90;1.00;;;;;;2268066;61;1134;-85
2023/11/18 08:34:38;681979.00;2.27;1176.00;84076.00;0.28;146.08;;;;;10.70;1.00;;;;;;2267894;61;2002;-87
2023/11/18 08:37:06;763044.00;2.54;1316.75;78109.00;0.26;135.77;;;;;10.90;1.00;;;;;;2267887;61;996;-86
2023/11/18 08:39:33;960781.00;3.20;1663.13;121584.00;0.41;210.81;;;;;11.10;1.00;;;;;;2267955;61;1037;-85
2023/11/18 08:42:00;574102.00;1.91;989.52;102293.00;0.34;177.53;;;;;10.70;1.00;;;;;;2267909;61;1075;-86
2023/11/18 08:44:28;499826.00;1.67;861.52;155810.00;0.52;269.82;;;;;10.60;1.00;;;;;;2267844;61;1420;-86
2023/11/18 08:46:57;288007.00;0.96;497.30;84657.00;0.28;147.08;;;;;10.80;1.00;;;;;;2267850;61;1074;-87
2023/11/18 08:49:25;280576.00;0.94;484.53;93799.00;0.31;162.87;;;;;11.00;1.00;;;;;;2267705;61;1002;-85
2023/11/18 08:51:55;272740.00;0.91;471.06;84812.00;0.28;147.35;;;;;10.90;1.00;;;;;;2267819;61;1772;-85
2023/11/18 08:54:25;242812.00;0.81;419.59;81325.00;0.27;141.33;;;;;11.00;1.00;;;;;;2267864;61;2006;-85
2023/11/18 08:56:52;302177.00;1.01;521.66;83252.00;0.28;144.65;;;;;11.10;1.00;;;;;;2267925;61;1303;-85
2023/11/18 08:59:24;61272.00;0.20;106.68;0.00;0.00;0.62;;;;;11.30;1.00;;;;;;2267921;61;1134;-86
2023/11/18 09:01:55;51761.00;0.17;90.23;0.00;0.00;0.62;;;;;11.30;1.00;;;;;;2267916;61;1010;-86
2023/11/18 09:04:23;402.00;0.00;1.32;0.00;0.00;0.62;;;;;11.30;1.00;;;;;;2267796;61;1423;-87
2023/11/18 09:06:51;8974.00;0.03;16.17;0.00;0.00;0.62;;;;;11.30;1.00;;;;;;2267902;61;941;-87
2023/11/18 09:09:25;100947.00;0.34;175.21;0.00;0.00;0.62;;;;;11.50;1.00;;;;;;2267960;61;1166;-86
2023/11/18 09:11:57;21871.00;0.07;38.51;0.00;0.00;0.62;;;;;11.60;1.00;;;;;;2268025;61;919;-86
2023/11/18 09:14:25;173164.00;0.58;299.72;40570.00;0.14;70.87;;;;;11.80;1.00;;;;;;2267871;61;1918;-87
2023/11/18 09:16:55;53069.00;0.18;92.49;0.00;0.00;0.62;;;;;11.90;1.00;;;;;;2267967;61;932;-88
2023/11/18 09:19:24;14244.00;0.05;25.30;0.00;0.00;0.62;;;;;12.00;1.00;;;;;;2267918;61;1030;-88
2023/11/18 09:21:54;140079.00;0.47;242.71;0.00;0.00;0.62;;;;;11.80;1.00;;;;;;2267898;61;1123;-87
2023/11/18 09:27:02;359727.00;1.20;620.58;0.00;0.00;0.62;;;;;11.80;1.00;;;;;;2273607;61;1410;-86
2023/11/18 09:29:32;66186.00;0.22;115.17;0.00;0.00;0.62;;;;;11.80;1.00;;;;;;2283188;40;3571;-85
2023/11/18 09:31:59;24604.00;0.08;43.24;0.00;0.00;0.62;;;;;11.90;1.00;;;;;;2272637;61;1465;-87
2023/11/18 09:34:33;180495.00;0.60;312.34;19140.00;0.06;33.78;;;;;12.00;1.00;;;;;;2270973;61;2001;-85
2023/11/18 09:36:59;47979.00;0.16;83.69;0.00;0.00;0.62;;;;;12.20;1.00;;;;;;2279401;40;3556;-84
2023/11/18 09:39:37;92041.00;0.31;159.83;0.00;0.00;0.62;;;;;12.20;1.00;;;;;;2272667;61;1031;-86
2023/11/18 09:52:45;1375102.00;4.58;2410.23;41307.00;0.14;72.15;;;;;12.30;1.00;;;;;;2322322;41;2067;-87
2023/11/18 09:55:23;367367.00;1.22;633.71;0.00;0.00;0.62;;;;;12.60;1.00;;;;;;2338525;56;3751;-87
2023/11/18 09:57:57;19682.00;0.07;34.72;0.00;0.00;0.62;;;;;13.00;1.00;;;;;;2268419;61;1139;-87
2023/11/18 10:00:27;165680.00;0.55;286.82;55547.00;0.19;96.78;;;;;12.70;1.00;;;;;;2268497;61;1246;-88